Weather History for KOXI - October, 2013

Change the Weather History Date:

Monday, October 7, 2013

  Actual Average (KVPZ) Record (KVPZ)
Temperature  
Mean Temperature 53 °F 55 °F  
Max Temperature 96 °F 66 °F 88 °F (2007)
Min Temperature 43 °F 44 °F 30 °F (2000)
Degree Days  
Heating Degree Days 12 10  
Month to date heating degree days 67  
Since 1 July heating degree days 197  
Cooling Degree Days 0 1  
Month to date cooling degree days 7  
Year to date cooling degree days 709  
Growing Degree Days 3 (Base 50)    
Moisture  
Dew Point 43 °F    
Average Humidity 78    
Maximum Humidity 93    
Minimum Humidity 36    
Precipitation  
Precipitation 0.00 in 0.09 in 0.66 in (2008)
Month to date precipitation 0.68  
Year to date precipitation 29.43  
Sea Level Pressure  
Sea Level Pressure 29.93 in    
Wind  
Wind Speed 7 mph (WSW)    
Max Wind Speed 14 mph    
Max Gust Speed 21 mph    
Visibility 10 miles    
Events      
T = Trace of Precipitation, MM = Missing Value Source: NWS Daily Summary

Daily Weather History Graph

Daily Weather History Graph

Search for Another Location

Airport or City:

Trip Planner

Search our weather history database for the weather conditions in past years. The results will help you decide how hot, cold, wet, or windy it might be!

Date:

Astronomy

Oct. 07, 2013 Rise Set
Actual Time 6:49 AM CDT 6:18 PM CDT
Civil Twilight 6:22 AM CDT 6:45 PM CDT
Nautical Twilight 5:50 AM CDT 7:17 PM CDT
Astronomical Twilight 5:18 AM CDT 7:49 PM CDT
Moon 9:41 AM CDT (10/7) 8:00 PM CDT (10/7)
Length of Visible Light 12h 23m
Length of Day
11h 28m
Waxing Crescent, 9% of the Moon is Illuminated
Oct 7
Waxing Crescent
Oct 11
First Quarter
Oct 18
Full
Oct 26
Last Quarter
Nov 3
New

Hourly Weather History & Observations

Time (CDT) Temp. Windchill Dew Point Humidity Pressure Visibility Wind Dir Wind Speed Gust Speed Precip Events Conditions
12:15 AM 43.0 °F 39.5 °F 40.3 °F 90% 29.78 in 10.0 mi SW 5.8 mph - N/A   Clear
12:35 AM 43.9 °F 40.5 °F 40.5 °F 88% 29.78 in 10.0 mi SW 5.8 mph - N/A   Scattered Clouds
12:55 AM 45.3 °F 42.3 °F 41.5 °F 87% 29.78 in 10.0 mi WSW 5.8 mph - N/A   Overcast
1:15 AM 46.0 °F 43.1 °F 41.9 °F 85% 29.78 in 10.0 mi SSW 5.8 mph - N/A   Overcast
1:35 AM 46.0 °F 42.5 °F 41.9 °F 85% 29.78 in 10.0 mi SW 6.9 mph - N/A   Overcast
1:55 AM 45.9 °F 43.6 °F 42.3 °F 87% 29.78 in 10.0 mi SW 4.6 mph - N/A   Overcast
2:15 AM 45.7 °F - 42.8 °F 90% 29.78 in 10.0 mi Calm Calm - N/A   Mostly Cloudy
2:35 AM 45.3 °F 43.0 °F 43.0 °F 92% 29.78 in 10.0 mi SW 4.6 mph - N/A   Overcast
2:55 AM 45.9 °F 44.6 °F 43.5 °F 92% 29.78 in 10.0 mi WSW 3.5 mph - N/A   Overcast
3:15 AM 46.4 °F 43.5 °F 43.9 °F 91% 29.79 in 10.0 mi WSW 5.8 mph - N/A   Overcast
3:35 AM 46.6 °F - 44.1 °F 91% 29.78 in 10.0 mi WSW 6.9 mph - N/A   Overcast
3:55 AM 46.6 °F - 43.5 °F 89% 29.78 in 10.0 mi WSW 6.9 mph - N/A   Overcast
4:15 AM 46.2 °F 41.2 °F 42.8 °F 88% 29.79 in 10.0 mi West 10.4 mph - N/A   Overcast
4:35 AM 45.7 °F 41.5 °F 42.3 °F 88% 29.80 in 10.0 mi West 8.1 mph - N/A   Overcast
4:55 AM 45.3 °F 40.6 °F 42.4 °F 90% 29.81 in 10.0 mi West 9.2 mph - N/A   Overcast
5:15 AM 45.0 °F 39.7 °F 42.6 °F 91% 29.81 in 10.0 mi West 10.4 mph 16.1 mph N/A   Mostly Cloudy
5:35 AM 44.6 °F 40.2 °F 42.3 °F 91% 29.82 in 10.0 mi West 8.1 mph - N/A   Scattered Clouds
5:55 AM 44.1 °F 38.6 °F 42.1 °F 93% 29.83 in 10.0 mi West 10.4 mph 16.1 mph N/A   Scattered Clouds
6:15 AM 43.9 °F 40.5 °F 41.9 °F 93% 29.83 in 10.0 mi WSW 5.8 mph - N/A   Scattered Clouds
6:35 AM 43.9 °F 39.9 °F 41.9 °F 93% 29.83 in 10.0 mi WSW 6.9 mph - N/A   Mostly Cloudy
6:55 AM 44.2 °F 38.8 °F 42.3 °F 93% 29.83 in 10.0 mi SW 10.4 mph - N/A   Overcast
7:15 AM 44.6 °F 39.2 °F 42.8 °F 93% 29.85 in 10.0 mi WSW 10.4 mph - N/A   Overcast
7:35 AM 44.6 °F 39.7 °F 42.4 °F 92% 29.85 in 10.0 mi WSW 9.2 mph 16.1 mph N/A   Scattered Clouds
7:55 AM 45.1 °F 39.9 °F 42.8 °F 91% 29.85 in 10.0 mi WSW 10.4 mph - N/A   Clear
8:15 AM 46.4 °F 41.5 °F 43.0 °F 88% 29.86 in 10.0 mi WSW 10.4 mph - N/A   Clear
8:35 AM 47.5 °F - 43.0 °F 84% 29.88 in 10.0 mi West 10.4 mph 17.3 mph N/A   Clear
8:55 AM 48.7 °F - 42.8 °F 80% 29.88 in 10.0 mi West 12.7 mph - N/A   Scattered Clouds
9:15 AM 49.5 °F - 43.2 °F 79% 29.89 in 10.0 mi WSW 12.7 mph - N/A   Mostly Cloudy
9:35 AM 50.2 °F - 42.8 °F 76% 29.90 in 10.0 mi WSW 10.4 mph 20.7 mph N/A   Mostly Cloudy
9:55 AM 49.8 °F - 43.2 °F 78% 29.90 in 10.0 mi West 13.8 mph 19.6 mph N/A   Overcast
10:15 AM 49.6 °F - 44.4 °F 82% 29.91 in 10.0 mi West 10.4 mph - N/A   Overcast
10:35 AM 49.6 °F - 45.1 °F 84% 29.92 in 10.0 mi WSW 10.4 mph 19.6 mph N/A   Overcast
10:55 AM 50.0 °F - 45.7 °F 85% 29.93 in 10.0 mi West 13.8 mph 19.6 mph N/A   Overcast
11:15 AM 50.4 °F - 46.2 °F 86% 29.94 in 10.0 mi West 10.4 mph 16.1 mph N/A   Overcast
11:35 AM 51.1 °F - 46.8 °F 85% 29.95 in 10.0 mi West 13.8 mph - N/A   Overcast
11:55 AM 51.6 °F - 47.1 °F 85% 29.95 in 10.0 mi West 10.4 mph 17.3 mph N/A   Overcast
12:15 PM 51.8 °F - 47.3 °F 85% 29.96 in 10.0 mi West 10.4 mph 16.1 mph N/A   Overcast
12:35 PM 52.5 °F - 47.7 °F 84% 29.97 in 10.0 mi West 10.4 mph 18.4 mph N/A   Overcast
12:55 PM 54.3 °F - 47.7 °F 78% 29.97 in 10.0 mi West 10.4 mph 18.4 mph N/A   Overcast
1:15 PM 55.6 °F - 47.1 °F 73% 29.97 in 10.0 mi NW 8.1 mph - N/A   Mostly Cloudy
1:35 PM 57.4 °F - 46.2 °F 66% 29.96 in 10.0 mi West 10.4 mph - N/A   Scattered Clouds
1:55 PM 59.4 °F - 45.1 °F 59% 29.96 in 10.0 mi West 8.1 mph - N/A   Clear
2:15 PM 60.6 °F - 44.2 °F 55% 29.97 in 10.0 mi West 10.4 mph 18.4 mph N/A   Clear
2:35 PM 62.2 °F - 43.3 °F 50% 29.97 in 10.0 mi WNW 9.2 mph - N/A   Clear
2:55 PM 63.0 °F - 41.0 °F 45% 29.97 in 10.0 mi NW 8.1 mph - N/A   Clear
3:15 PM 63.1 °F - 40.3 °F 43% 29.98 in 10.0 mi NNW 11.5 mph 16.1 mph N/A   Clear
3:35 PM 63.3 °F - 39.4 °F 41% 29.98 in 10.0 mi NW 9.2 mph 17.3 mph N/A   Clear
3:55 PM 63.5 °F - 38.1 °F 39% 29.99 in 10.0 mi NNW 10.4 mph 17.3 mph N/A   Clear
4:15 PM 63.1 °F - 37.2 °F 38% 29.99 in 10.0 mi NW 8.1 mph - N/A   Clear
4:35 PM 63.1 °F - 35.4 °F 36% 29.99 in 10.0 mi NW 6.9 mph - N/A   Clear
4:55 PM 62.2 °F - 37.0 °F 39% 29.99 in 10.0 mi North 6.9 mph - N/A   Clear
5:15 PM 61.5 °F - 38.8 °F 43% 30.00 in 10.0 mi North 3.5 mph - N/A   Clear
5:35 PM 60.8 °F - 39.4 °F 45% 30.01 in 10.0 mi North 3.5 mph - N/A   Clear
5:55 PM 60.1 °F - 40.1 °F 48% 30.01 in 10.0 mi NE 3.5 mph - N/A   Clear
6:15 PM 57.9 °F - 40.3 °F 52% 30.02 in 10.0 mi ESE 4.6 mph - N/A   Clear
6:35 PM 54.1 °F - 42.1 °F 64% 30.02 in 10.0 mi East 4.6 mph - N/A   Clear
6:55 PM 52.0 °F - 42.6 °F 70% 30.03 in 10.0 mi ESE 5.8 mph - N/A   Clear
7:15 PM 49.8 °F - 43.9 °F 80% 30.04 in 10.0 mi SE 3.5 mph - N/A   Clear
7:35 PM 48.6 °F - 45.0 °F 87% 30.05 in 10.0 mi SE 5.8 mph - N/A   Clear
7:55 PM 48.6 °F - 44.6 °F 86% 30.05 in 10.0 mi SE 4.6 mph - N/A   Clear
8:15 PM 48.0 °F - 44.4 °F 87% 30.06 in 10.0 mi ESE 4.6 mph - N/A   Clear
8:35 PM 47.7 °F - 44.4 °F 89% 30.08 in 10.0 mi SSE 4.6 mph - N/A   Clear
8:55 PM 46.8 °F - 44.1 °F 90% 30.08 in 10.0 mi SE 4.6 mph - N/A   Clear
9:15 PM 47.3 °F - 43.7 °F 87% 30.09 in 10.0 mi SE 5.8 mph - N/A   Clear
9:35 PM 47.5 °F - 43.7 °F 87% 30.09 in 10.0 mi SE 4.6 mph - N/A   Clear
9:55 PM 46.8 °F - 43.7 °F 89% 30.09 in 10.0 mi SE 3.5 mph - N/A   Clear
10:15 PM 46.4 °F 44.3 °F 43.3 °F 89% 30.10 in 10.0 mi SSE 4.6 mph - N/A   Clear
10:35 PM 46.0 °F 44.8 °F 43.2 °F 90% 30.10 in 10.0 mi SE 3.5 mph - N/A   Clear
10:55 PM 46.6 °F - 43.2 °F 88% 30.11 in 10.0 mi South 3.5 mph - N/A   Clear
11:15 PM 47.1 °F - 43.2 °F 86% 30.11 in 10.0 mi SSE 3.5 mph - N/A   Clear
11:35 PM 46.4 °F 44.3 °F 42.8 °F 87% 30.12 in 10.0 mi South 4.6 mph - N/A   Clear
11:55 PM 47.8 °F - 43.3 °F 84% 30.12 in 10.0 mi South 5.8 mph - N/A   Clear